createdAt,value
2018-05-24T00:00:13.376Z,54.93
2018-05-24T00:03:15.812Z,54.87
2018-05-24T00:06:18.367Z,54.50
2018-05-24T00:09:20.831Z,53.88
2018-05-24T00:12:23.315Z,53.93
2018-05-24T00:15:25.754Z,54.31
2018-05-24T00:18:28.173Z,54.58
2018-05-24T00:21:30.743Z,54.63
2018-05-24T00:24:33.209Z,55.32
2018-05-24T00:27:35.676Z,54.81
2018-05-24T00:30:38.232Z,55.10
2018-05-24T00:33:40.781Z,55.83
2018-05-24T00:36:43.225Z,56.42
2018-05-24T00:39:45.708Z,56.55
2018-05-24T00:42:48.179Z,57.16
2018-05-24T00:45:50.788Z,55.97
2018-05-24T00:48:53.304Z,57.11
2018-05-24T00:51:55.721Z,56.83
2018-05-24T00:55:10.061Z,56.88
2018-05-24T00:58:12.572Z,56.83
2018-05-24T01:01:15.165Z,57.12
2018-05-24T01:04:17.626Z,56.85
2018-05-24T01:07:20.108Z,56.93
2018-05-24T01:10:22.617Z,57.42
2018-05-24T01:13:25.097Z,57.95
2018-05-24T01:16:27.562Z,58.13
2018-05-24T01:19:30.133Z,58.36
2018-05-24T01:22:32.591Z,58.48
2018-05-24T01:25:35.050Z,58.03
2018-05-24T01:28:37.532Z,58.29
2018-05-24T01:31:39.963Z,58.01
2018-05-24T01:34:42.433Z,57.64
2018-05-24T01:37:50.656Z,57.84
2018-05-24T01:40:53.123Z,58.30
2018-05-24T01:43:55.648Z,59.11
2018-05-24T01:46:58.082Z,59.72
2018-05-24T01:50:00.640Z,60.61
2018-05-24T01:53:03.167Z,61.17
2018-05-24T01:56:05.699Z,61.54
2018-05-24T01:59:08.132Z,61.57
2018-05-24T02:02:10.717Z,62.07
2018-05-24T02:05:13.172Z,62.30
2018-05-24T02:08:15.758Z,62.68
2018-05-24T02:11:18.202Z,62.26
2018-05-24T02:14:20.741Z,61.12
2018-05-24T02:17:23.286Z,61.02
2018-05-24T02:20:25.701Z,60.96
2018-05-24T02:23:28.769Z,61.41
2018-05-24T02:26:31.313Z,60.70
2018-05-24T02:29:33.821Z,60.93
2018-05-24T02:32:36.343Z,61.46
2018-05-24T02:35:38.871Z,61.74
2018-05-24T02:38:41.344Z,62.26
2018-05-24T02:41:43.829Z,61.74
2018-05-24T02:44:46.293Z,62.29
2018-05-24T02:47:48.752Z,62.34
2018-05-24T02:50:51.312Z,63.63
2018-05-24T02:53:53.883Z,63.66
2018-05-24T02:56:56.325Z,63.93
2018-05-24T02:59:58.903Z,64.03
2018-05-24T03:03:01.349Z,64.14
2018-05-24T03:06:03.847Z,64.66
2018-05-24T03:09:06.313Z,65.47
2018-05-24T03:12:08.874Z,65.62
2018-05-24T03:15:11.441Z,65.02
2018-05-24T03:18:13.898Z,65.40
2018-05-24T03:21:16.359Z,65.32
2018-05-24T03:24:18.845Z,64.81
2018-05-24T03:27:21.419Z,64.46
2018-05-24T03:30:23.924Z,64.88
2018-05-24T03:33:26.360Z,64.08
2018-05-24T03:36:28.855Z,64.14
2018-05-24T03:39:31.328Z,63.48
2018-05-24T03:42:33.853Z,63.55
2018-05-24T03:45:36.324Z,62.45
2018-05-24T03:48:38.990Z,62.13
2018-05-24T03:51:41.449Z,61.52
2018-05-24T03:54:43.948Z,61.07
2018-05-24T03:57:46.600Z,59.54
2018-05-24T04:01:00.900Z,59.90
2018-05-24T04:04:15.135Z,59.58
2018-05-24T04:07:17.587Z,58.48
2018-05-24T04:10:20.109Z,56.35
2018-05-24T04:13:22.575Z,55.58
2018-05-24T04:16:25.040Z,55.94
2018-05-24T04:19:27.513Z,54.73
2018-05-24T04:22:30.100Z,53.94
2018-05-24T04:25:32.644Z,54.92
2018-05-24T04:28:36.091Z,56.45
2018-05-24T04:31:38.561Z,59.13
2018-05-24T04:34:41.046Z,60.49
2018-05-24T04:37:43.624Z,60.64
2018-05-24T04:40:46.064Z,62.07
2018-05-24T04:43:48.575Z,62.34
2018-05-24T04:46:57.899Z,63.42
2018-05-24T04:50:00.323Z,64.00
2018-05-24T04:53:02.825Z,63.06
2018-05-24T04:56:05.311Z,61.83
2018-05-24T04:59:07.781Z,58.72
2018-05-24T05:02:10.225Z,57.12
2018-05-24T05:05:12.756Z,58.22
2018-05-24T05:08:15.219Z,59.99
2018-05-24T05:11:17.688Z,62.02
2018-05-24T05:14:20.245Z,62.67
2018-05-24T05:17:22.748Z,61.96
2018-05-24T05:20:25.264Z,62.19
2018-05-24T05:23:27.803Z,60.49
2018-05-24T05:26:30.185Z,58.48
2018-05-24T05:29:32.658Z,55.76
2018-05-24T05:32:35.096Z,53.65
2018-05-24T05:35:37.558Z,53.23
2018-05-24T05:38:40.024Z,54.26
2018-05-24T05:41:42.477Z,55.36
2018-05-24T05:44:45.037Z,51.87
2018-05-24T05:47:47.464Z,52.59
2018-05-24T05:50:49.907Z,50.82
2018-05-24T05:53:52.387Z,48.79
2018-05-24T05:56:54.872Z,48.34
2018-05-24T05:59:57.438Z,48.42
2018-05-24T06:02:59.990Z,47.36
2018-05-24T06:06:02.516Z,49.44
2018-05-24T06:09:05.120Z,49.08
2018-05-24T06:12:07.687Z,47.97
2018-05-24T06:15:10.171Z,47.60
2018-05-24T06:18:12.702Z,46.53
2018-05-24T06:21:15.177Z,44.68
2018-05-24T06:24:17.641Z,44.60
2018-05-24T06:27:20.124Z,43.08
2018-05-24T06:30:22.691Z,42.85
2018-05-24T06:33:25.146Z,46.29
2018-05-24T06:36:27.690Z,43.77
2018-05-24T06:39:30.121Z,46.92
2018-05-24T06:42:32.597Z,49.59
2018-05-24T06:45:35.047Z,48.87
2018-05-24T06:48:37.535Z,45.71
2018-05-24T06:51:40.025Z,46.89
2018-05-24T06:54:42.491Z,48.82
2018-05-24T06:57:44.981Z,51.51
2018-05-24T07:00:47.485Z,54.18
2018-05-24T07:03:49.925Z,55.90
2018-05-24T07:06:52.411Z,56.58
2018-05-24T07:09:54.857Z,57.87
2018-05-24T07:12:57.315Z,58.44
2018-05-24T07:15:59.791Z,58.13
2018-05-24T07:19:02.330Z,57.92
2018-05-24T07:22:04.897Z,58.77
2018-05-24T07:25:07.328Z,60.06
2018-05-24T07:28:09.815Z,61.92
2018-05-24T07:31:12.312Z,59.69
2018-05-24T07:34:14.767Z,58.67
2018-05-24T07:37:17.275Z,59.09
2018-05-24T07:40:19.752Z,57.65
2018-05-24T07:43:22.234Z,57.18
2018-05-24T07:46:24.726Z,59.09
2018-05-24T07:49:27.241Z,58.74
2018-05-24T07:52:29.776Z,60.02
2018-05-24T07:55:32.392Z,58.63
2018-05-24T07:58:34.924Z,59.23
2018-05-24T08:01:37.422Z,59.57
2018-05-24T08:04:40.671Z,58.54
2018-05-24T08:07:43.177Z,56.83
2018-05-24T08:10:45.621Z,57.63
2018-05-24T08:13:48.100Z,55.36
2018-05-24T08:16:50.689Z,57.37
2018-05-24T08:19:53.156Z,55.44
2018-05-24T08:22:55.646Z,57.43
2018-05-24T08:25:58.092Z,58.28
2018-05-24T08:29:00.596Z,58.87
2018-05-24T08:32:03.047Z,59.63
2018-05-24T08:35:05.553Z,59.57
2018-05-24T08:38:08.026Z,56.97
2018-05-24T08:41:10.457Z,55.85
2018-05-24T08:44:12.963Z,57.05
2018-05-24T08:47:15.515Z,58.15
2018-05-24T08:50:17.984Z,57.19
2018-05-24T08:53:20.626Z,57.53
2018-05-24T08:56:23.102Z,57.97
2018-05-24T08:59:25.669Z,57.35
2018-05-24T09:02:28.113Z,57.92
2018-05-24T09:05:30.592Z,57.96
2018-05-24T09:08:33.092Z,58.71
2018-05-24T09:11:35.567Z,59.16
2018-05-24T09:14:38.044Z,59.50
2018-05-24T09:17:40.669Z,60.44
2018-05-24T09:20:43.153Z,59.55
2018-05-24T09:23:45.668Z,60.15
2018-05-24T09:26:48.148Z,60.22
2018-05-24T09:29:50.629Z,59.76
2018-05-24T09:32:53.159Z,61.28
2018-05-24T09:35:55.624Z,59.88
2018-05-24T09:38:58.103Z,60.12
2018-05-24T09:42:00.697Z,59.10
2018-05-24T09:45:03.193Z,58.17
2018-05-24T09:48:05.694Z,58.77
2018-05-24T09:51:08.211Z,57.66
2018-05-24T09:54:10.718Z,57.43
2018-05-24T09:57:13.205Z,56.50
2018-05-24T10:00:15.809Z,56.64
2018-05-24T10:03:18.374Z,56.77
2018-05-24T10:06:20.849Z,55.41
2018-05-24T10:09:23.343Z,52.88
2018-05-24T10:12:25.804Z,52.05
2018-05-24T10:15:28.327Z,54.14
2018-05-24T10:18:30.774Z,51.41
2018-05-24T10:21:33.241Z,51.25
2018-05-24T10:24:35.894Z,52.16
2018-05-24T10:27:38.402Z,52.16
2018-05-24T10:30:40.958Z,50.36
2018-05-24T10:33:43.434Z,50.36
2018-05-24T10:36:45.901Z,50.07
2018-05-24T10:39:48.369Z,49.57
2018-05-24T10:42:50.904Z,49.46
2018-05-24T10:45:53.521Z,50.80
2018-05-24T10:48:56.031Z,51.52
2018-05-24T10:51:58.533Z,50.88
2018-05-24T10:55:01.015Z,51.37
2018-05-24T10:58:03.669Z,52.37
2018-05-24T11:01:06.093Z,51.95
2018-05-24T11:04:08.635Z,51.87
2018-05-24T11:07:11.267Z,51.66
2018-05-24T11:10:13.753Z,52.03
2018-05-24T11:13:16.285Z,52.59
2018-05-24T11:16:18.785Z,52.90
2018-05-24T11:19:22.550Z,53.10
2018-05-24T11:22:25.103Z,53.70
2018-05-24T11:25:27.575Z,53.53
2018-05-24T11:28:30.093Z,54.46
2018-05-24T11:31:32.599Z,54.13
2018-05-24T11:34:35.053Z,55.74
2018-05-24T11:37:37.700Z,56.08
2018-05-24T11:40:40.190Z,57.13
2018-05-24T11:43:42.734Z,59.21
2018-05-24T11:46:45.400Z,60.15
2018-05-24T11:49:47.963Z,59.94
2018-05-24T11:52:50.445Z,60.08
2018-05-24T11:55:52.889Z,61.91
2018-05-24T11:58:55.389Z,61.49
2018-05-24T12:01:57.850Z,61.47
2018-05-24T12:05:00.478Z,61.22
2018-05-24T12:08:03.049Z,60.54
2018-05-24T12:11:05.583Z,61.12
2018-05-24T12:14:08.058Z,60.60
2018-05-24T12:17:10.573Z,61.69
2018-05-24T12:20:13.183Z,61.10
2018-05-24T12:23:15.688Z,61.99
2018-05-24T12:26:18.420Z,60.93
2018-05-24T12:29:20.923Z,61.05
2018-05-24T12:32:23.404Z,61.30
2018-05-24T12:35:25.946Z,61.43
2018-05-24T12:38:28.381Z,61.10
2018-05-24T12:41:30.811Z,61.37
2018-05-24T12:44:33.336Z,60.89
2018-05-24T12:47:35.855Z,61.31
2018-05-24T12:50:38.401Z,62.10
2018-05-24T12:53:40.896Z,62.04
2018-05-24T12:56:43.421Z,62.65
2018-05-24T12:59:45.927Z,61.91
2018-05-24T13:02:48.374Z,62.92
2018-05-24T13:05:50.949Z,62.82
2018-05-24T13:08:53.573Z,63.13
2018-05-24T13:11:56.074Z,64.75
2018-05-24T13:14:58.603Z,65.69
2018-05-24T13:18:01.045Z,67.50
2018-05-24T13:21:03.538Z,66.95
2018-05-24T13:24:06.300Z,68.49
2018-05-24T13:27:08.810Z,72.22
2018-05-24T13:30:11.305Z,69.83
2018-05-24T13:33:13.792Z,73.35
2018-05-24T13:36:16.276Z,74.11
2018-05-24T13:39:18.708Z,75.09
2018-05-24T13:42:21.162Z,75.65
2018-05-24T13:45:23.679Z,74.23
2018-05-24T13:48:26.093Z,75.44
2018-05-24T13:51:28.644Z,76.24
2018-05-24T13:54:31.228Z,76.88
2018-05-24T13:57:44.475Z,76.89
2018-05-24T14:00:46.975Z,75.94
2018-05-24T14:03:49.425Z,77.68
2018-05-24T14:06:51.968Z,76.95
2018-05-24T14:09:54.441Z,77.94
2018-05-24T14:12:57.017Z,79.49
2018-05-24T14:15:59.595Z,79.08
2018-05-24T14:19:02.090Z,79.94
2018-05-24T14:22:04.607Z,80.67
2018-05-24T14:25:07.132Z,80.80
2018-05-24T14:28:09.612Z,81.85
2018-05-24T14:31:12.132Z,82.19
2018-05-24T14:34:14.675Z,82.11
2018-05-24T14:37:17.309Z,82.70
2018-05-24T14:40:19.787Z,82.52
2018-05-24T14:43:22.335Z,82.30
2018-05-24T14:46:24.812Z,82.22
2018-05-24T14:49:27.464Z,81.59
2018-05-24T14:52:30.021Z,81.71
2018-05-24T14:55:32.567Z,81.27
2018-05-24T14:58:35.049Z,80.81
2018-05-24T15:01:37.578Z,80.78
2018-05-24T15:04:40.115Z,80.30
2018-05-24T15:07:42.560Z,80.33
2018-05-24T15:10:45.068Z,80.04
2018-05-24T15:13:52.365Z,79.75
2018-05-24T15:16:54.824Z,79.97
2018-05-24T15:19:57.386Z,79.61
2018-05-24T15:22:59.866Z,80.33
2018-05-24T15:26:02.403Z,79.86
2018-05-24T15:29:04.889Z,79.55
2018-05-24T15:32:07.375Z,79.30
2018-05-24T15:35:09.942Z,78.23
2018-05-24T15:38:12.535Z,77.91
2018-05-24T15:41:16.256Z,77.79
2018-05-24T15:44:18.773Z,77.85
2018-05-24T15:47:21.366Z,78.25
2018-05-24T15:50:23.901Z,78.70
2018-05-24T15:53:26.523Z,78.98
2018-05-24T15:56:28.988Z,79.62
2018-05-24T15:59:31.473Z,79.78
2018-05-24T16:02:33.959Z,79.48
2018-05-24T16:05:36.541Z,78.86
2018-05-24T16:08:39.063Z,78.85
2018-05-24T16:11:41.531Z,78.95
2018-05-24T16:14:44.059Z,79.75
2018-05-24T16:17:46.565Z,79.53
2018-05-24T16:20:49.065Z,79.72
2018-05-24T16:23:51.553Z,79.58
2018-05-24T16:26:54.070Z,79.96
2018-05-24T16:29:56.552Z,80.80
2018-05-24T16:32:59.068Z,80.78
2018-05-24T16:36:01.658Z,80.65
2018-05-24T16:39:04.156Z,80.79
2018-05-24T16:42:06.744Z,80.86
2018-05-24T16:45:09.201Z,80.85
2018-05-24T16:48:11.707Z,80.46
2018-05-24T16:51:14.294Z,79.59
2018-05-24T16:54:16.892Z,78.06
2018-05-24T16:57:19.353Z,75.83
2018-05-24T17:00:21.932Z,73.96
2018-05-24T17:03:24.458Z,72.97
2018-05-24T17:06:27.028Z,72.19
2018-05-24T17:09:29.437Z,72.79
2018-05-24T17:12:32.011Z,72.03
2018-05-24T17:15:34.574Z,72.23
2018-05-24T17:18:37.044Z,71.00
2018-05-24T17:21:39.555Z,70.00
2018-05-24T17:24:42.059Z,71.06
2018-05-24T17:27:44.620Z,71.55
2018-05-24T17:30:47.133Z,71.21
2018-05-24T17:33:49.571Z,72.52
2018-05-24T17:36:52.088Z,73.15
2018-05-24T17:39:54.653Z,73.31
2018-05-24T17:42:57.231Z,74.87
2018-05-24T17:45:59.719Z,74.72
2018-05-24T17:49:02.211Z,72.45
2018-05-24T17:52:04.721Z,72.22
2018-05-24T17:55:07.189Z,73.26
2018-05-24T17:58:09.791Z,71.04
2018-05-24T18:01:12.362Z,71.13
2018-05-24T18:04:14.958Z,71.15
2018-05-24T18:07:17.527Z,71.83
2018-05-24T18:10:19.970Z,72.84
2018-05-24T18:13:22.504Z,72.75
2018-05-24T18:16:24.963Z,70.70
2018-05-24T18:19:27.569Z,70.25
2018-05-24T18:22:30.064Z,71.29
2018-05-24T18:25:32.598Z,71.71
2018-05-24T18:28:35.090Z,74.05
2018-05-24T18:31:37.589Z,74.60
2018-05-24T18:34:40.179Z,74.53
2018-05-24T18:37:42.724Z,76.12
2018-05-24T18:40:45.234Z,76.22
2018-05-24T18:43:47.877Z,76.00
2018-05-24T18:46:50.362Z,74.93
2018-05-24T18:49:52.840Z,75.26
2018-05-24T18:52:55.347Z,73.50
2018-05-24T18:55:57.912Z,72.26
2018-05-24T18:59:00.484Z,75.79
2018-05-24T19:02:03.139Z,75.39
2018-05-24T19:05:05.609Z,76.02
2018-05-24T19:08:08.141Z,76.58
2018-05-24T19:11:10.584Z,77.89
2018-05-24T19:14:13.086Z,78.44
2018-05-24T19:17:15.645Z,78.78
2018-05-24T19:20:18.119Z,76.39
2018-05-24T19:23:20.599Z,77.05
2018-05-24T19:26:23.152Z,77.55
2018-05-24T19:29:25.747Z,79.03
2018-05-24T19:32:28.208Z,79.94
2018-05-24T19:35:30.705Z,80.14
2018-05-24T19:38:33.404Z,79.77
2018-05-24T19:41:36.033Z,78.26
2018-05-24T19:44:38.523Z,78.29
2018-05-24T19:47:41.054Z,76.85
2018-05-24T19:50:43.611Z,76.34
2018-05-24T19:53:46.148Z,74.87
2018-05-24T19:56:48.661Z,75.26
2018-05-24T19:59:51.150Z,75.50
2018-05-24T20:02:53.699Z,75.06
2018-05-24T20:05:56.168Z,77.36
2018-05-24T20:08:58.625Z,79.05
2018-05-24T20:12:01.140Z,80.51
2018-05-24T20:15:03.599Z,80.56
2018-05-24T20:18:06.246Z,76.20
2018-05-24T20:21:08.756Z,74.73
2018-05-24T20:24:11.344Z,76.72
2018-05-24T20:27:13.864Z,67.99
2018-05-24T20:30:16.340Z,64.88
2018-05-24T20:33:18.868Z,67.62
2018-05-24T20:36:21.401Z,69.48
2018-05-24T20:39:23.996Z,72.77
2018-05-24T20:42:26.568Z,74.38
2018-05-24T20:45:29.113Z,73.77
2018-05-24T20:48:31.749Z,72.65
2018-05-24T20:51:34.367Z,72.34
2018-05-24T20:54:36.944Z,73.29
2018-05-24T20:57:39.421Z,73.73
2018-05-24T21:00:41.969Z,73.37
2018-05-24T21:03:44.509Z,73.33
2018-05-24T21:06:47.008Z,73.57
2018-05-24T21:09:49.498Z,74.41
2018-05-24T21:12:51.948Z,74.62
2018-05-24T21:15:54.462Z,75.60
2018-05-24T21:18:56.964Z,76.11
2018-05-24T21:21:59.460Z,76.62
2018-05-24T21:25:02.012Z,75.64
2018-05-24T21:28:04.479Z,75.19
2018-05-24T21:31:07.024Z,75.64
2018-05-24T21:34:09.544Z,76.08
2018-05-24T21:37:12.030Z,76.97
2018-05-24T21:40:14.516Z,78.08
2018-05-24T21:43:17.035Z,77.23
2018-05-24T21:46:19.539Z,78.08
2018-05-24T21:49:22.019Z,78.32
2018-05-24T21:52:24.491Z,78.59
2018-05-24T21:55:27.019Z,78.82
2018-05-24T21:58:29.474Z,79.25
2018-05-24T22:01:31.998Z,79.33
2018-05-24T22:04:34.520Z,79.54
2018-05-24T22:07:37.011Z,79.72
2018-05-24T22:10:39.551Z,79.49
2018-05-24T22:13:42.059Z,79.42
2018-05-24T22:16:44.508Z,79.15
2018-05-24T22:19:46.989Z,79.18
2018-05-24T22:22:49.480Z,79.23
2018-05-24T22:25:51.995Z,78.74
2018-05-24T22:28:54.578Z,79.03
2018-05-24T22:31:57.109Z,79.92
2018-05-24T22:34:59.609Z,80.40
2018-05-24T22:38:02.165Z,80.59
2018-05-24T22:41:04.641Z,81.17
2018-05-24T22:44:07.194Z,81.46
2018-05-24T22:47:09.692Z,81.53
2018-05-24T22:50:12.181Z,81.73
2018-05-24T22:53:14.640Z,81.88
2018-05-24T22:56:17.209Z,81.99
2018-05-24T22:59:19.662Z,81.68
2018-05-24T23:02:22.134Z,81.71
2018-05-24T23:05:24.592Z,81.73
2018-05-24T23:08:27.230Z,81.75
2018-05-24T23:11:29.655Z,81.66
2018-05-24T23:14:32.193Z,81.47
2018-05-24T23:17:34.661Z,81.32
2018-05-24T23:20:37.136Z,81.01
2018-05-24T23:23:39.604Z,80.93
2018-05-24T23:26:42.111Z,80.87
2018-05-24T23:29:44.575Z,80.85
2018-05-24T23:32:47.083Z,80.68
2018-05-24T23:35:49.637Z,80.52
2018-05-24T23:38:52.088Z,80.43
2018-05-24T23:41:54.671Z,80.28
2018-05-24T23:44:57.133Z,80.20
2018-05-24T23:47:59.701Z,80.21
2018-05-24T23:51:02.188Z,80.11
2018-05-24T23:54:04.671Z,80.20
2018-05-24T23:57:07.152Z,80.36
